Time;durP1;ratioP1;P1;durP2;ratioP2;P2;SDS_P1;SDS_P2;PMS_P1;PMS_P2;Temp;Humidity;BMP_temperature;BMP_pressure;BME280_temperature;BME280_humidity;BME280_pressure;Samples;Min_cycle;Max_cycle;Signal;HPM_P1;HPM_P2
2022/10/26 05:04:04;;;;;;;9.60;3.90;;;13.00;99.90;;;;;;4961778;29;20105;-71
2022/10/26 05:06:30;;;;;;;10.25;4.50;;;12.90;99.90;;;;;;4964503;29;20059;-71
2022/10/26 05:08:56;;;;;;;13.35;4.57;;;12.90;99.90;;;;;;4964201;29;20086;-70
2022/10/26 05:11:22;;;;;;;8.43;3.95;;;12.90;99.90;;;;;;4964968;29;20100;-71
2022/10/26 05:13:48;;;;;;;8.98;3.97;;;12.80;99.90;;;;;;4965036;29;20055;-70
2022/10/26 05:16:15;;;;;;;7.90;3.97;;;12.80;99.90;;;;;;4965067;29;20094;-70
2022/10/26 05:18:41;;;;;;;8.07;3.75;;;12.90;99.90;;;;;;4965195;29;20030;-70
2022/10/26 05:21:06;;;;;;;6.60;3.50;;;12.80;99.90;;;;;;4964669;29;20186;-70
2022/10/26 05:23:32;;;;;;;6.05;3.83;;;12.90;99.90;;;;;;4964711;29;20066;-70
2022/10/26 05:25:57;;;;;;;8.98;3.97;;;12.90;99.90;;;;;;4963423;28;20309;-71
2022/10/26 05:28:23;;;;;;;10.18;3.80;;;12.90;99.90;;;;;;4964566;29;20074;-69
2022/10/26 05:30:49;;;;;;;7.32;3.33;;;12.90;99.90;;;;;;4964390;29;20115;-70
2022/10/26 05:33:15;;;;;;;7.80;3.30;;;12.90;99.90;;;;;;4964798;29;20046;-70
2022/10/26 05:35:41;;;;;;;9.10;5.32;;;13.00;99.90;;;;;;4964432;29;20070;-69
2022/10/26 05:38:16;;;;;;;9.02;5.40;;;13.00;99.90;;;;;;4964049;29;20086;-71
2022/10/26 05:40:52;;;;;;;10.48;3.10;;;13.10;99.90;;;;;;4964371;29;20035;-70
2022/10/26 05:43:20;;;;;;;6.15;2.85;;;13.10;99.90;;;;;;4964336;29;20213;-69
2022/10/26 05:45:46;;;;;;;8.25;3.17;;;13.10;99.90;;;;;;4964511;29;20035;-67
2022/10/26 05:48:12;;;;;;;9.20;3.20;;;13.20;99.90;;;;;;4963851;29;20039;-69
2022/10/26 05:50:37;;;;;;;11.27;3.38;;;13.20;99.90;;;;;;4964147;29;20138;-68
2022/10/26 05:53:03;;;;;;;15.27;9.60;;;13.30;99.90;;;;;;4946961;29;20137;-68
2022/10/26 05:55:29;;;;;;;6.55;3.58;;;13.30;99.90;;;;;;4964411;29;20094;-69
2022/10/26 05:57:55;;;;;;;14.63;10.85;;;13.30;99.90;;;;;;4946290;29;20061;-68
2022/10/26 06:00:24;;;;;;;6.88;4.13;;;13.20;99.90;;;;;;4964041;29;20035;-69
2022/10/26 06:03:05;;;;;;;9.55;4.20;;;13.20;99.90;;;;;;4955640;28;20043;-69
2022/10/26 06:05:41;;;;;;;9.13;4.05;;;13.20;99.90;;;;;;4947122;29;20035;-71
2022/10/26 06:08:10;;;;;;;13.07;4.53;;;13.20;99.90;;;;;;4962681;29;20027;-69
2022/10/26 06:10:37;;;;;;;12.20;4.95;;;13.20;99.90;;;;;;4958455;29;20039;-70
2022/10/26 06:13:03;;;;;;;10.02;4.78;;;13.10;99.90;;;;;;4963156;29;20264;-70
2022/10/26 06:15:36;;;;;;;9.52;4.70;;;13.20;99.90;;;;;;4964320;29;20063;-70
2022/10/26 06:18:17;;;;;;;11.60;4.18;;;13.20;99.90;;;;;;4963577;29;20094;-69
2022/10/26 06:21:08;;;;;;;9.20;4.13;;;13.20;99.90;;;;;;4946184;29;20327;-69
2022/10/26 06:23:43;;;;;;;10.80;4.10;;;13.20;99.90;;;;;;4949327;29;20031;-71
2022/10/26 06:26:30;;;;;;;10.38;3.95;;;13.20;99.90;;;;;;4957558;28;20027;-68
2022/10/26 06:29:30;;;;;;;10.20;3.65;;;13.30;99.90;;;;;;4977835;28;20034;-70
2022/10/26 06:32:00;;;;;;;10.15;3.40;;;13.30;99.90;;;;;;4973401;28;20038;-71
2022/10/26 06:34:31;;;;;;;9.07;3.40;;;13.40;99.90;;;;;;4981356;28;20106;-70
2022/10/26 06:36:59;;;;;;;8.52;3.65;;;13.40;99.90;;;;;;4980559;28;20035;-68
2022/10/26 06:39:28;;;;;;;11.10;3.60;;;13.50;99.90;;;;;;4974081;28;20035;-70
2022/10/26 06:41:57;;;;;;;12.70;4.32;;;13.50;99.90;;;;;;4960812;29;20086;-69
2022/10/26 06:44:24;;;;;;;16.58;3.88;;;13.50;99.90;;;;;;4972155;28;20031;-70
2022/10/26 06:47:25;;;;;;;11.65;4.50;;;13.50;99.90;;;;;;4981305;28;20205;-70
2022/10/26 06:50:03;;;;;;;10.10;4.07;;;13.50;99.90;;;;;;4981893;28;20034;-71
2022/10/26 06:52:34;;;;;;;16.02;6.05;;;13.50;99.90;;;;;;4981500;28;20039;-72
2022/10/26 06:55:00;;;;;;;13.52;6.45;;;13.50;99.90;;;;;;4981129;28;20034;-71
2022/10/26 06:57:33;;;;;;;12.45;6.88;;;13.50;99.90;;;;;;4966910;28;20059;-72
2022/10/26 07:00:16;;;;;;;13.75;6.75;;;13.50;99.90;;;;;;4960320;29;20031;-69
2022/10/26 07:02:41;;;;;;;14.07;7.22;;;13.50;99.90;;;;;;4961633;28;20106;-70
2022/10/26 07:05:11;;;;;;;17.42;8.50;;;13.50;99.90;;;;;;4961645;29;20062;-70
2022/10/26 07:07:41;;;;;;;11.98;6.90;;;13.60;99.90;;;;;;4962634;29;20197;-69
2022/10/26 07:10:09;;;;;;;14.75;7.38;;;13.60;99.90;;;;;;4952328;29;20095;-69
2022/10/26 07:12:35;;;;;;;17.27;8.32;;;13.70;99.90;;;;;;4943170;29;20066;-70
2022/10/26 07:15:01;;;;;;;13.52;7.55;;;13.70;99.90;;;;;;4942161;29;20106;-70
2022/10/26 07:17:29;;;;;;;10.35;6.13;;;13.70;99.90;;;;;;4952883;29;20062;-69
2022/10/26 07:19:55;;;;;;;12.75;5.55;;;13.80;99.90;;;;;;4961640;29;20313;-70
2022/10/26 07:22:21;;;;;;;13.23;6.05;;;13.80;99.90;;;;;;4961757;29;20042;-71
2022/10/26 07:24:49;;;;;;;12.95;5.95;;;13.90;99.90;;;;;;4962329;29;20037;-69
2022/10/26 07:27:15;;;;;;;;;;;13.90;99.90;;;;;;4961777;29;20050;-69
2022/10/26 07:29:41;;;;;;;8.10;4.70;;;14.00;99.90;;;;;;4961732;29;19907;-68
2022/10/26 07:32:07;;;;;;;13.13;5.68;;;14.10;99.90;;;;;;4961116;29;20042;-69
2022/10/26 07:34:33;;;;;;;8.85;4.65;;;14.20;99.90;;;;;;4961656;29;20463;-72
2022/10/26 07:36:59;;;;;;;11.30;4.35;;;14.30;99.90;;;;;;4961266;29;20095;-72
2022/10/26 07:39:25;;;;;;;12.35;5.22;;;14.40;99.90;;;;;;4961579;29;20038;-71
2022/10/26 07:41:51;;;;;;;7.32;4.65;;;14.50;99.90;;;;;;4961779;29;20038;-70
2022/10/26 07:44:18;;;;;;;7.60;3.10;;;14.50;99.90;;;;;;4961399;29;20187;-70
2022/10/26 07:46:44;;;;;;;3.63;1.83;;;14.80;99.90;;;;;;4961729;29;20039;-71
2022/10/26 07:49:10;;;;;;;8.77;2.25;;;15.00;99.90;;;;;;4961159;28;20035;-70
2022/10/26 07:51:36;;;;;;;5.00;1.90;;;15.40;99.90;;;;;;4965241;29;20074;-69
2022/10/26 07:54:02;;;;;;;4.78;1.70;;;15.70;99.90;;;;;;4963705;28;20035;-71
2022/10/26 07:56:27;;;;;;;5.43;1.70;;;16.00;99.90;;;;;;4948338;29;20057;-73
2022/10/26 07:58:54;;;;;;;4.10;1.50;;;16.30;99.90;;;;;;4964483;29;20027;-72
2022/10/26 08:01:20;;;;;;;4.75;1.45;;;16.40;99.90;;;;;;4964734;28;20070;-71
2022/10/26 08:03:46;;;;;;;7.65;1.70;;;16.50;99.90;;;;;;4964998;29;20035;-70
2022/10/26 08:06:12;;;;;;;8.95;1.70;;;16.60;99.90;;;;;;4964426;29;20258;-69
2022/10/26 08:08:38;;;;;;;6.43;1.95;;;16.70;99.90;;;;;;4965288;29;20023;-71
2022/10/26 08:11:05;;;;;;;4.60;2.05;;;16.90;99.90;;;;;;4964370;29;20031;-72
2022/10/26 08:13:31;;;;;;;4.80;1.92;;;16.90;99.90;;;;;;4964575;29;20035;-71
2022/10/26 08:16:01;;;;;;;5.03;1.80;;;16.90;99.90;;;;;;4964346;29;20218;-70
2022/10/26 08:18:27;;;;;;;7.13;1.70;;;16.90;99.90;;;;;;4964463;29;20023;-70
2022/10/26 08:20:53;;;;;;;3.42;1.58;;;17.00;99.90;;;;;;4964504;29;20058;-69
2022/10/26 08:23:19;;;;;;;7.72;1.67;;;17.10;99.90;;;;;;4964783;29;20094;-70
2022/10/26 08:25:45;;;;;;;5.13;1.50;;;17.10;99.90;;;;;;4965067;29;20065;-71
2022/10/26 08:28:11;;;;;;;5.78;2.05;;;17.20;99.90;;;;;;4964199;29;20031;-71
2022/10/26 08:30:36;;;;;;;6.00;1.67;;;17.20;99.90;;;;;;4963969;29;20262;-72
2022/10/26 08:33:06;;;;;;;5.95;1.52;;;17.20;99.90;;;;;;4963477;29;20035;-71
2022/10/26 08:35:33;;;;;;;5.00;1.50;;;17.40;99.90;;;;;;4964579;29;20030;-70
2022/10/26 08:37:58;;;;;;;4.80;1.40;;;17.50;99.90;;;;;;4963967;29;20309;-71
2022/10/26 08:40:29;;;;;;;4.85;1.48;;;17.50;99.90;;;;;;4951642;29;20087;-72
2022/10/26 08:43:04;;;;;;;4.00;1.30;;;17.50;99.90;;;;;;4944510;29;20042;-73
2022/10/26 08:45:40;;;;;;;6.35;1.50;;;17.50;99.90;;;;;;4945223;29;20106;-70
2022/10/26 08:48:14;;;;;;;4.80;1.48;;;17.50;99.90;;;;;;4950930;29;20070;-72
2022/10/26 08:50:51;;;;;;;4.85;1.55;;;17.40;99.90;;;;;;4964359;29;20046;-71
2022/10/26 08:53:32;;;;;;;5.35;1.48;;;17.50;99.90;;;;;;4963619;29;20027;-72
2022/10/26 08:56:20;;;;;;;6.63;1.45;;;17.50;99.90;;;;;;4964062;29;20061;-73
2022/10/26 08:58:52;;;;;;;4.57;1.50;;;17.60;99.90;;;;;;4964123;29;20027;-69
2022/10/26 09:01:18;;;;;;;5.65;1.42;;;17.70;99.90;;;;;;4946710;29;20027;-72
2022/10/26 09:03:44;;;;;;;5.18;1.50;;;17.80;99.90;;;;;;4963626;29;20164;-73
2022/10/26 09:06:24;;;;;;;9.80;1.88;;;17.90;99.90;;;;;;4946375;29;20321;-71
2022/10/26 09:09:05;;;;;;;3.58;1.35;;;18.00;99.90;;;;;;4964120;29;20042;-70
2022/10/26 09:11:34;;;;;;;5.82;1.40;;;18.30;99.90;;;;;;4945337;29;20309;-73
2022/10/26 09:14:22;;;;;;;8.35;2.30;;;18.50;99.90;;;;;;4944127;29;20098;-73
2022/10/26 09:17:08;;;;;;;6.68;2.17;;;18.70;99.90;;;;;;4944717;29;20040;-71
2022/10/26 09:19:46;;;;;;;8.00;3.05;;;18.90;99.90;;;;;;4944594;29;20094;-72
2022/10/26 09:22:23;;;;;;;11.55;2.78;;;19.00;99.90;;;;;;4943977;29;20527;-72
2022/10/26 09:24:56;;;;;;;8.48;2.88;;;19.10;99.90;;;;;;4944303;29;20056;-70
2022/10/26 09:27:46;;;;;;;5.35;2.40;;;19.10;99.90;;;;;;4944485;29;20036;-71
2022/10/26 09:30:14;;;;;;;6.65;2.67;;;19.20;99.90;;;;;;4943500;29;20039;-70
2022/10/26 09:32:44;;;;;;;6.68;2.50;;;19.10;99.90;;;;;;4956469;29;20074;-70
2022/10/26 09:35:28;;;;;;;7.47;2.45;;;19.00;99.90;;;;;;4962804;29;20023;-69
2022/10/26 09:38:08;;;;;;;9.00;3.15;;;19.00;99.90;;;;;;4963048;28;20031;-70
2022/10/26 09:40:52;;;;;;;7.88;2.80;;;19.10;99.90;;;;;;4963528;29;20050;-70
2022/10/26 09:43:25;;;;;;;6.95;3.00;;;19.10;99.90;;;;;;4963417;29;20041;-70
2022/10/26 09:45:52;;;;;;;8.65;2.92;;;19.10;99.90;;;;;;4963288;29;20086;-69
2022/10/26 09:48:26;;;;;;;4.85;1.50;;;19.00;99.90;;;;;;4962839;29;20238;-69
2022/10/26 09:50:52;;;;;;;5.70;1.60;;;19.10;99.90;;;;;;4963126;29;20057;-72
2022/10/26 09:53:17;;;;;;;6.20;1.50;;;19.30;99.90;;;;;;4963436;29;20328;-71
2022/10/26 09:55:49;;;;;;;4.25;1.60;;;19.70;99.90;;;;;;4963187;29;20090;-69
2022/10/26 09:58:20;;;;;;;7.55;1.73;;;20.00;99.90;;;;;;4962343;29;20309;-70
2022/10/26 10:00:46;;;;;;;8.23;2.05;;;20.40;99.90;;;;;;4962910;29;20045;-71
2022/10/26 10:03:30;;;;;;;6.22;2.38;;;20.50;99.90;;;;;;4961489;28;20366;-69
2022/10/26 10:06:17;;;;;;;5.45;1.55;;;20.80;99.90;;;;;;4962477;29;20090;-69
2022/10/26 10:09:04;;;;;;;6.50;1.23;;;21.00;99.90;;;;;;4962809;29;20046;-69
2022/10/26 10:11:42;;;;;;;9.50;1.65;;;20.90;99.90;;;;;;4958089;28;20071;-70
2022/10/26 10:14:13;;;;;;;5.50;1.40;;;20.90;99.90;;;;;;4961945;29;20056;-71
2022/10/26 10:16:40;;;;;;;5.50;1.40;;;20.80;99.90;;;;;;4962533;29;20023;-72
2022/10/26 10:19:19;;;;;;;5.55;1.80;;;20.80;99.90;;;;;;4961922;29;20038;-69
2022/10/26 10:21:49;;;;;;;5.25;1.73;;;21.00;99.90;;;;;;4962371;29;20061;-72
2022/10/26 10:24:32;;;;;;;7.80;1.83;;;21.00;99.90;;;;;;4961593;29;20066;-71
2022/10/26 10:27:14;;;;;;;5.50;1.50;;;21.20;99.90;;;;;;4962310;29;20037;-72
2022/10/26 10:29:43;;;;;;;5.82;1.58;;;21.30;99.90;;;;;;4958696;29;20050;-72
2022/10/26 10:32:21;;;;;;;5.38;1.30;;;21.40;99.90;;;;;;4946222;29;20047;-72
2022/10/26 10:34:48;;;;;;;5.60;1.73;;;21.90;99.90;;;;;;4962791;29;20031;-71
2022/10/26 10:37:28;;;;;;;4.85;1.50;;;22.10;99.70;;;;;;4944599;29;20127;-73
2022/10/26 10:40:22;;;;;;;5.15;1.55;;;21.90;99.60;;;;;;4961757;29;20332;-70
2022/10/26 10:42:51;;;;;;;5.30;1.40;;;22.00;99.60;;;;;;4961790;29;20058;-71
2022/10/26 10:45:26;;;;;;;5.50;1.42;;;22.20;99.20;;;;;;4962567;29;20023;-70
2022/10/26 10:48:11;;;;;;;8.23;1.95;;;22.00;99.40;;;;;;4962236;29;20489;-70
2022/10/26 10:50:38;;;;;;;5.25;1.55;;;21.80;99.70;;;;;;4962508;29;20317;-70
2022/10/26 10:53:22;;;;;;;6.00;1.40;;;21.70;99.90;;;;;;4961677;29;20070;-70
2022/10/26 10:56:17;;;;;;;5.93;1.45;;;21.70;99.90;;;;;;4962424;29;20090;-69
2022/10/26 10:59:05;;;;;;;6.07;1.40;;;22.00;99.80;;;;;;4953348;29;20028;-70
2022/10/26 11:01:45;;;;;;;5.85;1.70;;;22.00;99.40;;;;;;4942867;29;20063;-70
2022/10/26 11:04:50;;;;;;;4.85;1.63;;;22.10;99.40;;;;;;4952803;29;20050;-70
2022/10/26 11:07:19;;;;;;;4.80;1.48;;;22.30;99.20;;;;;;4960563;29;20257;-71
2022/10/26 11:09:48;;;;;;;7.10;1.60;;;22.40;98.90;;;;;;4961761;29;20050;-71
2022/10/26 11:12:36;;;;;;;5.63;1.50;;;23.80;98.00;;;;;;4960693;29;20141;-74
2022/10/26 11:15:05;;;;;;;;;;;25.00;96.10;;;;;;4961133;29;20081;-72
2022/10/26 11:17:35;;;;;;;6.55;1.58;;;25.70;94.20;;;;;;4960994;29;20069;-72
2022/10/26 11:20:15;;;;;;;5.78;1.70;;;25.50;93.50;;;;;;4959697;29;20026;-72
2022/10/26 11:23:00;;;;;;;6.50;1.40;;;25.50;93.90;;;;;;4961649;29;20039;-70
2022/10/26 11:25:35;;;;;;;6.70;1.52;;;25.20;93.10;;;;;;4965750;29;20340;-72
2022/10/26 11:28:15;;;;;;;3.45;1.23;;;24.90;93.90;;;;;;4963681;29;20031;-70
2022/10/26 11:30:48;;;;;;;7.07;1.65;;;24.70;93.60;;;;;;4953719;29;20023;-71
2022/10/26 11:33:25;;;;;;;6.07;1.50;;;24.40;93.90;;;;;;4955261;29;20091;-72
2022/10/26 11:35:57;;;;;;;8.53;1.67;;;24.50;93.80;;;;;;4962217;29;20143;-71
2022/10/26 11:38:32;;;;;;;6.63;2.00;;;24.60;93.70;;;;;;4962128;29;20031;-70
2022/10/26 11:41:17;;;;;;;4.40;1.15;;;24.70;93.90;;;;;;4952753;29;20237;-70
2022/10/26 11:43:48;;;;;;;5.80;1.42;;;24.60;93.60;;;;;;4958853;29;20043;-69
2022/10/26 11:46:29;;;;;;;9.30;2.00;;;24.80;93.50;;;;;;4945676;29;20031;-70
2022/10/26 11:49:10;;;;;;;8.45;1.30;;;25.00;93.30;;;;;;4945426;29;20062;-69
2022/10/26 11:52:13;;;;;;;4.55;1.30;;;24.70;92.80;;;;;;4946135;29;20262;-70
2022/10/26 11:54:46;;;;;;;6.80;1.42;;;24.90;92.60;;;;;;4938619;29;20051;-71
2022/10/26 11:57:14;;;;;;;5.10;1.60;;;24.90;92.40;;;;;;4964689;29;20229;-74
2022/10/26 11:59:49;;;;;;;6.50;1.23;;;25.00;92.20;;;;;;4955916;29;20086;-72
2022/10/26 12:02:18;;;;;;;6.25;1.40;;;25.20;92.90;;;;;;4944909;29;20099;-71
2022/10/26 12:04:50;;;;;;;6.38;1.20;;;25.20;92.30;;;;;;4946069;29;20035;-71
2022/10/26 12:07:31;;;;;;;5.85;1.60;;;25.10;92.30;;;;;;4945368;29;20138;-74
2022/10/26 12:09:59;;;;;;;4.97;1.30;;;25.20;92.10;;;;;;4952479;29;20031;-71
2022/10/26 12:12:43;;;;;;;5.25;1.38;;;25.30;91.80;;;;;;4964782;29;20312;-71
2022/10/26 12:15:38;;;;;;;5.13;1.45;;;25.20;92.00;;;;;;4964415;29;20043;-71
2022/10/26 12:18:18;;;;;;;4.97;1.35;;;25.10;92.20;;;;;;4964241;28;20046;-73
2022/10/26 12:21:07;;;;;;;4.88;1.15;;;25.10;92.30;;;;;;4964587;29;20198;-71
2022/10/26 12:23:36;;;;;;;4.00;1.15;;;25.10;92.60;;;;;;4947621;29;20035;-73
2022/10/26 12:26:27;;;;;;;5.00;1.08;;;25.10;91.90;;;;;;4963824;29;20317;-72
2022/10/26 12:29:01;;;;;;;4.68;1.70;;;25.30;92.50;;;;;;4963137;29;20035;-72
2022/10/26 12:31:36;;;;;;;6.35;1.58;;;25.90;91.60;;;;;;4964845;29;20232;-71
2022/10/26 12:34:04;;;;;;;6.10;1.30;;;26.00;91.30;;;;;;4964334;29;20050;-71
2022/10/26 12:36:56;;;;;;;7.32;1.52;;;26.40;91.80;;;;;;4963977;28;20098;-70
2022/10/26 12:39:34;;;;;;;9.77;2.60;;;26.50;90.60;;;;;;4964191;29;20327;-70
2022/10/26 12:42:09;;;;;;;7.00;2.03;;;26.30;91.40;;;;;;4963824;29;20027;-72
2022/10/26 12:44:47;;;;;;;5.63;1.40;;;26.00;90.60;;;;;;4964454;29;20261;-72
2022/10/26 12:47:35;;;;;;;6.20;1.73;;;25.80;91.20;;;;;;4963536;29;20619;-71
2022/10/26 12:50:07;;;;;;;5.13;1.20;;;25.70;91.70;;;;;;4936345;29;20062;-72
2022/10/26 12:52:40;;;;;;;4.32;1.25;;;25.60;91.20;;;;;;4963979;29;20023;-72
2022/10/26 12:55:12;;;;;;;4.05;1.00;;;25.30;91.20;;;;;;4944595;29;20100;-73
2022/10/26 12:57:43;;;;;;;4.60;1.13;;;24.90;90.70;;;;;;4945410;29;20054;-72
2022/10/26 13:00:15;;;;;;;5.88;1.13;;;24.90;90.70;;;;;;4944502;29;20310;-71
2022/10/26 13:02:53;;;;;;;4.40;1.20;;;24.80;91.30;;;;;;4944511;29;20152;-72
2022/10/26 13:06:00;;;;;;;4.15;1.08;;;24.90;90.80;;;;;;4944986;29;20050;-72
2022/10/26 13:08:26;;;;;;;5.88;1.20;;;25.00;90.90;;;;;;4944666;29;20036;-72
2022/10/26 13:11:11;;;;;;;6.90;1.15;;;24.60;90.30;;;;;;4959018;29;20324;-73
2022/10/26 13:13:39;;;;;;;4.25;1.48;;;24.50;90.80;;;;;;4963877;29;20055;-73
2022/10/26 13:16:10;;;;;;;5.88;1.50;;;24.70;90.60;;;;;;4963261;28;20293;-72
2022/10/26 13:18:48;;;;;;;4.28;1.27;;;24.90;90.40;;;;;;4963491;29;20285;-71
2022/10/26 13:21:19;;;;;;;4.72;1.17;;;25.00;90.10;;;;;;4963007;29;20465;-69
2022/10/26 13:23:47;;;;;;;6.68;1.40;;;24.80;90.10;;;;;;4963354;29;20372;-70
2022/10/26 13:26:14;;;;;;;4.97;1.05;;;25.30;89.40;;;;;;4945750;29;20043;-71
2022/10/26 13:28:40;;;;;;;3.72;1.00;;;26.40;87.60;;;;;;4963018;29;20054;-71
2022/10/26 13:31:14;;;;;;;4.82;1.58;;;27.50;84.40;;;;;;4962423;29;20035;-71
2022/10/26 13:33:42;;;;;;;4.00;1.10;;;27.60;84.40;;;;;;4963406;29;20035;-69
2022/10/26 13:36:22;;;;;;;4.35;1.00;;;28.20;82.50;;;;;;4962923;29;20027;-71
2022/10/26 13:38:49;;;;;;;4.53;1.00;;;28.30;81.10;;;;;;4945887;29;20102;-69
2022/10/26 13:41:27;;;;;;;5.63;1.75;;;28.30;80.70;;;;;;4962930;29;20035;-72
2022/10/26 13:43:53;;;;;;;6.95;1.08;;;28.00;80.70;;;;;;4962599;29;20074;-70
2022/10/26 13:46:26;;;;;;;5.28;1.48;;;28.20;79.70;;;;;;4962677;28;20043;-72
2022/10/26 13:49:04;;;;;;;7.00;1.42;;;28.40;79.50;;;;;;4944059;29;20035;-73
2022/10/26 13:51:35;;;;;;;;;;;28.50;79.40;;;;;;4945359;29;20047;-70
2022/10/26 13:54:14;;;;;;;5.78;1.00;;;28.60;79.00;;;;;;4954885;29;19945;-72
2022/10/26 13:56:50;;;;;;;5.07;1.30;;;28.80;80.10;;;;;;4963973;29;20178;-72
2022/10/26 13:59:15;;;;;;;3.75;1.20;;;28.80;77.80;;;;;;4961787;29;20169;-73
2022/10/26 14:01:41;;;;;;;3.70;0.73;;;28.70;78.00;;;;;;4963796;29;20054;-70
2022/10/26 14:04:17;;;;;;;5.28;1.25;;;29.70;76.20;;;;;;4963589;29;20050;-73
2022/10/26 14:06:49;;;;;;;7.10;1.00;;;30.00;74.90;;;;;;4964276;29;20081;-71
2022/10/26 14:09:16;;;;;;;3.80;1.00;;;29.60;75.50;;;;;;4963544;29;20228;-72
2022/10/26 14:11:48;;;;;;;6.28;1.23;;;29.10;76.00;;;;;;4964107;29;20027;-71
2022/10/26 14:14:24;;;;;;;5.22;1.60;;;28.90;76.60;;;;;;4963474;29;20058;-71
2022/10/26 14:16:52;;;;;;;6.95;1.67;;;28.90;76.20;;;;;;4963729;29;20039;-71
2022/10/26 14:19:29;;;;;;;3.72;1.27;;;29.20;76.10;;;;;;4963438;28;20180;-71
2022/10/26 14:21:56;;;;;;;3.83;1.00;;;28.90;74.80;;;;;;4963567;29;20034;-71
2022/10/26 14:24:26;;;;;;;7.47;4.68;;;28.40;76.60;;;;;;4963462;29;20451;-71
2022/10/26 14:26:52;;;;;;;5.95;1.50;;;28.90;76.40;;;;;;4963880;29;20031;-73
2022/10/26 14:29:21;;;;;;;5.07;2.33;;;29.90;75.10;;;;;;4963164;29;20046;-71
2022/10/26 14:31:48;;;;;;;6.63;1.23;;;30.50;72.50;;;;;;4963209;29;20042;-71
2022/10/26 14:34:15;;;;;;;4.97;1.00;;;30.20;71.50;;;;;;4963393;29;20166;-72
2022/10/26 14:36:47;;;;;;;6.80;1.40;;;30.10;73.60;;;;;;4963654;29;20036;-72
2022/10/26 14:39:43;;;;;;;5.53;1.50;;;29.70;75.30;;;;;;4957029;29;20028;-74
2022/10/26 14:42:30;;;;;;;5.00;0.90;;;29.40;75.40;;;;;;4921627;29;20439;-70
2022/10/26 14:44:56;;;;;;;5.63;1.10;;;28.70;74.60;;;;;;4944493;29;20039;-71
2022/10/26 14:47:34;;;;;;;6.13;1.42;;;28.60;75.00;;;;;;4947869;29;20027;-69
2022/10/26 14:50:00;;;;;;;4.07;1.13;;;28.70;74.90;;;;;;4942677;29;20090;-70
2022/10/26 14:52:29;;;;;;;8.05;1.70;;;29.30;74.30;;;;;;4945087;29;20041;-71
2022/10/26 14:55:10;;;;;;;7.05;1.58;;;29.00;74.90;;;;;;4950708;29;20031;-70
2022/10/26 14:57:38;;;;;;;5.13;1.30;;;28.70;76.70;;;;;;4945011;29;20221;-71
2022/10/26 15:00:23;;;;;;;8.07;1.70;;;28.80;75.70;;;;;;4963741;28;20027;-71
2022/10/26 15:02:54;;;;;;;3.90;1.50;;;28.20;75.30;;;;;;4965481;28;20070;-71
2022/10/26 15:05:23;;;;;;;9.65;2.38;;;27.90;77.70;;;;;;4966016;29;20042;-70
2022/10/26 15:07:50;;;;;;;9.70;2.63;;;27.90;78.30;;;;;;4965730;29;20019;-69
2022/10/26 15:10:34;;;;;;;4.40;1.53;;;28.40;77.90;;;;;;4965280;29;20108;-70
2022/10/26 15:13:26;;;;;;;6.05;1.42;;;28.90;78.20;;;;;;4949882;29;20055;-70
2022/10/26 15:15:53;;;;;;;4.65;1.45;;;28.90;77.70;;;;;;4946840;29;20039;-71
2022/10/26 15:18:32;;;;;;;7.05;1.67;;;28.70;77.70;;;;;;4945869;29;20031;-70
2022/10/26 15:20:58;;;;;;;7.47;1.80;;;28.20;78.20;;;;;;4961473;28;20039;-71
2022/10/26 15:23:25;;;;;;;6.85;1.88;;;27.80;79.40;;;;;;4966644;29;20321;-72
2022/10/26 15:26:02;;;;;;;5.50;1.50;;;27.20;81.80;;;;;;4966660;29;20044;-71
2022/10/26 15:28:29;;;;;;;5.28;1.98;;;26.90;81.90;;;;;;4966152;29;20296;-71
2022/10/26 15:31:01;;;;;;;6.18;2.00;;;26.60;82.30;;;;;;4966553;29;20324;-70
2022/10/26 15:33:27;;;;;;;8.15;2.65;;;26.10;86.60;;;;;;4966696;29;20035;-71
2022/10/26 15:36:16;;;;;;;8.85;2.28;;;25.70;85.50;;;;;;4966366;29;20090;-70
2022/10/26 15:38:42;;;;;;;6.30;1.45;;;25.10;88.40;;;;;;4966357;29;20066;-73
2022/10/26 15:41:30;;;;;;;5.60;1.90;;;24.70;89.60;;;;;;4966171;29;20055;-71
2022/10/26 15:44:04;;;;;;;4.45;1.58;;;24.20;88.90;;;;;;4965620;29;20039;-70
2022/10/26 15:46:35;;;;;;;6.88;2.45;;;23.80;90.10;;;;;;4966592;29;20031;-73
2022/10/26 15:49:06;;;;;;;4.82;1.73;;;23.40;92.60;;;;;;4965812;29;20043;-70
2022/10/26 15:51:32;;;;;;;5.68;1.55;;;23.10;93.20;;;;;;4965888;29;20046;-70
2022/10/26 15:54:03;;;;;;;7.68;2.13;;;22.80;93.10;;;;;;4965478;28;20067;-72
2022/10/26 15:56:29;;;;;;;6.43;1.70;;;22.60;94.40;;;;;;4966025;29;20306;-72
2022/10/26 15:58:56;;;;;;;5.18;2.17;;;22.30;95.00;;;;;;4966208;29;20305;-71
2022/10/26 16:01:27;;;;;;;5.88;2.00;;;22.10;94.60;;;;;;4965486;28;20027;-71
2022/10/26 16:03:53;;;;;;;9.50;2.55;;;21.80;94.20;;;;;;4964300;29;20050;-70
2022/10/26 16:06:29;;;;;;;7.07;1.95;;;21.50;95.00;;;;;;4946149;29;20024;-71
2022/10/26 16:08:57;;;;;;;8.23;2.40;;;21.20;96.50;;;;;;4946867;29;20043;-71
2022/10/26 16:11:23;;;;;;;6.30;2.22;;;21.10;97.60;;;;;;4945860;29;20063;-70
2022/10/26 16:13:49;;;;;;;8.15;2.35;;;20.90;96.50;;;;;;4951049;29;20198;-71
2022/10/26 16:16:17;;;;;;;4.63;1.98;;;20.70;98.00;;;;;;4963104;29;20054;-72
2022/10/26 16:18:43;;;;;;;8.40;2.70;;;20.50;97.40;;;;;;4946439;29;20020;-72
2022/10/26 16:21:13;;;;;;;7.95;2.17;;;20.40;98.50;;;;;;4950859;29;20023;-73
2022/10/26 16:23:40;;;;;;;7.03;2.47;;;20.20;98.30;;;;;;4965175;29;20110;-70
2022/10/26 16:26:06;;;;;;;7.95;1.92;;;20.10;98.40;;;;;;4964646;29;20094;-69
2022/10/26 16:28:32;;;;;;;8.25;2.58;;;19.90;98.80;;;;;;4965087;29;20035;-70
2022/10/26 16:30:59;;;;;;;7.93;2.63;;;19.70;99.30;;;;;;4965252;29;20031;-72
2022/10/26 16:33:25;;;;;;;6.53;2.65;;;19.60;99.70;;;;;;4965702;29;20066;-71
2022/10/26 16:35:58;;;;;;;8.80;3.40;;;19.40;99.90;;;;;;4965169;29;20039;-70
2022/10/26 16:38:25;;;;;;;11.02;3.72;;;19.10;99.90;;;;;;4966044;29;20208;-72
2022/10/26 16:41:06;;;;;;;10.27;4.97;;;19.00;99.90;;;;;;4965338;29;20323;-72
2022/10/26 16:43:34;;;;;;;11.65;5.00;;;18.90;99.90;;;;;;4965545;29;20325;-73
2022/10/26 16:46:08;;;;;;;10.13;4.55;;;18.80;99.90;;;;;;4965208;29;20026;-73
2022/10/26 16:48:38;;;;;;;9.65;5.50;;;18.70;99.90;;;;;;4965685;29;20123;-72
2022/10/26 16:51:12;;;;;;;10.10;4.55;;;18.60;99.90;;;;;;4965008;29;20106;-72
2022/10/26 16:53:38;;;;;;;8.55;3.13;;;18.50;99.90;;;;;;4965309;29;20041;-73
2022/10/26 16:56:12;;;;;;;10.80;3.08;;;18.30;99.90;;;;;;4964784;29;20058;-72
2022/10/26 16:58:39;;;;;;;8.57;3.00;;;18.10;99.90;;;;;;4965130;29;20061;-71
2022/10/26 17:01:05;;;;;;;7.57;3.28;;;18.10;99.90;;;;;;4964642;28;20055;-71
2022/10/26 17:03:31;;;;;;;7.97;3.25;;;18.10;99.90;;;;;;4964887;29;20067;-72
2022/10/26 17:06:02;;;;;;;6.70;3.65;;;18.00;99.90;;;;;;4965055;29;20039;-72
2022/10/26 17:08:29;;;;;;;7.45;3.45;;;18.00;99.90;;;;;;4965034;29;20039;-70
2022/10/26 17:11:04;;;;;;;10.93;3.70;;;17.90;99.90;;;;;;4964735;29;20058;-71
2022/10/26 17:13:30;;;;;;;10.52;3.88;;;17.90;99.90;;;;;;4964801;29;20095;-72
2022/10/26 17:16:04;;;;;;;10.38;4.10;;;17.90;99.90;;;;;;4964781;29;20225;-69
2022/10/26 17:18:29;;;;;;;12.68;4.70;;;17.80;99.90;;;;;;4964964;28;20086;-73
2022/10/26 17:20:55;;;;;;;10.25;4.20;;;17.60;99.90;;;;;;4964864;28;20074;-71
2022/10/26 17:23:21;;;;;;;9.07;4.03;;;17.60;99.90;;;;;;4964208;29;20054;-71
2022/10/26 17:25:46;;;;;;;9.38;4.30;;;17.40;99.90;;;;;;4964708;29;20301;-71
2022/10/26 17:28:13;;;;;;;9.65;4.07;;;17.40;99.90;;;;;;4964011;29;20054;-71
2022/10/26 17:30:39;;;;;;;6.70;3.60;;;17.20;99.90;;;;;;4964181;29;20317;-71
2022/10/26 17:33:05;;;;;;;10.23;3.10;;;17.20;99.90;;;;;;4963964;29;20038;-71
2022/10/26 17:35:32;;;;;;;8.65;3.30;;;17.10;99.90;;;;;;4963887;29;20090;-70
2022/10/26 17:37:58;;;;;;;10.20;4.22;;;17.10;99.90;;;;;;4946689;29;20078;-71
2022/10/26 17:40:24;;;;;;;14.52;6.00;;;17.00;99.90;;;;;;4963745;29;20035;-71
2022/10/26 17:42:50;;;;;;;13.70;5.55;;;17.00;99.90;;;;;;4951671;29;20050;-72
2022/10/26 17:45:16;;;;;;;10.27;4.93;;;16.90;99.90;;;;;;4944822;29;20031;-72
2022/10/26 17:47:41;;;;;;;10.77;4.80;;;16.90;99.90;;;;;;4956567;29;20201;-72
2022/10/26 17:50:08;;;;;;;10.32;4.32;;;16.80;99.90;;;;;;4962830;29;20225;-71
2022/10/26 17:52:34;;;;;;;8.90;4.60;;;16.80;99.90;;;;;;4964511;29;20099;-70
2022/10/26 17:55:00;;;;;;;10.05;5.07;;;16.80;99.90;;;;;;4947636;29;20090;-72
2022/10/26 17:57:26;;;;;;;11.18;5.25;;;16.80;99.90;;;;;;4963466;29;20178;-72
2022/10/26 17:59:51;;;;;;;8.43;4.45;;;16.70;99.90;;;;;;4964048;29;20102;-71
2022/10/26 18:02:17;;;;;;;11.27;4.93;;;16.60;99.90;;;;;;4954646;28;20212;-72
2022/10/26 18:04:44;;;;;;;9.82;4.43;;;16.50;99.90;;;;;;4944601;29;20035;-71
2022/10/26 18:07:11;;;;;;;14.77;5.45;;;16.50;99.90;;;;;;4920917;29;20032;-72
2022/10/26 18:09:39;;;;;;;11.02;4.82;;;16.40;99.90;;;;;;4925826;29;20051;-72
2022/10/26 18:12:06;;;;;;;9.35;4.70;;;16.30;99.90;;;;;;4930645;29;20032;-72
2022/10/26 18:14:31;;;;;;;11.40;4.97;;;16.30;99.90;;;;;;4932909;29;20338;-72